Time;durP1;ratioP1;P1;durP2;ratioP2;P2;SDS_P1;SDS_P2;PMS_P1;PMS_P2;Temp;Humidity;BMP_temperature;BMP_pressure;BME280_temperature;BME280_humidity;BME280_pressure;Samples;Min_cycle;Max_cycle;Signal;HPM_P1;HPM_P2
2022/11/04 00:02:06;;;;;;;;;5.50;3.75;;;;;;;;5106535;27;10029;-80
2022/11/04 00:04:35;;;;;;;;;4.75;3.25;;;;;;;;5124083;27;10264;-81
2022/11/04 00:08:22;;;;;;;;;4.00;4.00;;;;;;;;5125959;27;10101;-80
2022/11/04 00:09:53;;;;;;;;;4.00;4.00;;;;;;;;5116067;27;10025;-80
2022/11/04 00:12:25;;;;;;;;;4.25;2.50;;;;;;;;5106711;27;10280;-80
2022/11/04 00:14:53;;;;;;;;;3.50;3.50;;;;;;;;5129110;27;10125;-79
2022/11/04 00:17:20;;;;;;;;;7.00;5.00;;;;;;;;5127262;27;10008;-79
2022/11/04 00:30:56;;;;;;;;;3.50;3.50;;;;;;;;5127915;27;10001;-80
2022/11/04 00:33:25;;;;;;;;;5.50;3.00;;;;;;;;5128798;27;10036;-81
2022/11/04 00:35:55;;;;;;;;;4.00;4.00;;;;;;;;5125580;27;10083;-80
2022/11/04 00:38:24;;;;;;;;;4.00;4.00;;;;;;;;5107205;27;10236;-80
2022/11/04 00:40:52;;;;;;;;;2.25;2.25;;;;;;;;5126609;27;10135;-80
2022/11/04 00:43:19;;;;;;;;;3.50;3.00;;;;;;;;5125899;27;10158;-81
2022/11/04 00:45:47;;;;;;;;;2.50;2.50;;;;;;;;5130894;27;10141;-80
2022/11/04 00:48:15;;;;;;;;;1.00;1.00;;;;;;;;5109749;27;10925;-80
2022/11/04 00:50:43;;;;;;;;;2.00;2.00;;;;;;;;5125605;27;9996;-80
2022/11/04 00:53:11;;;;;;;;;2.50;2.50;;;;;;;;5107149;27;10180;-80
2022/11/04 00:55:40;;;;;;;;;2.00;2.00;;;;;;;;5130906;27;10067;-79
2022/11/04 00:58:07;;;;;;;;;2.00;2.00;;;;;;;;5127425;27;10214;-82
2022/11/04 01:00:35;;;;;;;;;2.00;2.00;;;;;;;;5129603;27;10016;-80
2022/11/04 01:03:02;;;;;;;;;5.25;3.00;;;;;;;;5129556;27;10150;-80
2022/11/04 01:05:30;;;;;;;;;2.00;2.00;;;;;;;;5125554;27;10148;-79
2022/11/04 01:07:58;;;;;;;;;4.75;2.00;;;;;;;;5111766;27;10178;-79
2022/11/04 01:10:26;;;;;;;;;2.50;2.00;;;;;;;;5108453;27;10158;-80
2022/11/04 01:12:55;;;;;;;;;3.25;2.00;;;;;;;;5105638;27;10033;-80
2022/11/04 01:15:23;;;;;;;;;1.50;1.50;;;;;;;;5126779;27;10262;-80
2022/11/04 01:17:51;;;;;;;;;1.75;1.75;;;;;;;;5113366;27;9990;-79
2022/11/04 01:20:19;;;;;;;;;2.50;2.50;;;;;;;;5121054;27;10955;-79
2022/11/04 01:22:46;;;;;;;;;2.25;2.00;;;;;;;;5126305;27;10225;-80
2022/11/04 01:25:15;;;;;;;;;2.00;2.00;;;;;;;;5108565;27;10119;-80
2022/11/04 01:27:42;;;;;;;;;2.00;2.00;;;;;;;;5105376;27;9975;-79
2022/11/04 01:30:13;;;;;;;;;2.50;1.00;;;;;;;;5112141;27;9952;-80
2022/11/04 01:32:41;;;;;;;;;1.00;1.00;;;;;;;;5127280;27;9904;-80
2022/11/04 01:35:09;;;;;;;;;4.00;2.50;;;;;;;;5111244;27;9999;-80
2022/11/04 01:37:36;;;;;;;;;2.25;2.25;;;;;;;;5125338;27;10881;-80
2022/11/04 01:40:05;;;;;;;;;2.00;2.00;;;;;;;;5126708;27;9972;-81
2022/11/04 01:42:32;;;;;;;;;2.50;1.00;;;;;;;;5109650;27;10169;-80
2022/11/04 01:45:01;;;;;;;;;1.50;1.50;;;;;;;;5125052;27;9972;-79
2022/11/04 01:47:35;;;;;;;;;1.50;1.50;;;;;;;;5122722;27;9971;-80
2022/11/04 01:50:07;;;;;;;;;2.00;2.00;;;;;;;;5104910;27;9860;-80
2022/11/04 01:52:38;;;;;;;;;5.25;3.00;;;;;;;;5124727;27;9982;-80
2022/11/04 01:55:10;;;;;;;;;1.00;1.00;;;;;;;;5124243;27;10027;-78
2022/11/04 01:57:41;;;;;;;;;3.00;2.00;;;;;;;;5127722;27;9872;-79
2022/11/04 02:00:11;;;;;;;;;0.00;0.00;;;;;;;;5130420;27;9758;-79
2022/11/04 02:02:49;;;;;;;;;2.75;1.00;;;;;;;;5126556;27;9661;-80
2022/11/04 02:05:17;;;;;;;;;2.00;2.00;;;;;;;;5126213;27;9668;-80
2022/11/04 02:07:45;;;;;;;;;4.00;1.75;;;;;;;;5108827;27;9678;-79
2022/11/04 02:10:13;;;;;;;;;1.50;1.25;;;;;;;;5122804;27;9760;-78
2022/11/04 02:12:49;;;;;;;;;1.00;1.00;;;;;;;;5129679;27;9945;-79
2022/11/04 02:15:18;;;;;;;;;2.00;1.00;;;;;;;;5109562;27;9693;-81
2022/11/04 02:18:15;;;;;;;;;1.00;1.00;;;;;;;;5125012;27;9774;-78
2022/11/04 02:21:18;;;;;;;;;3.25;2.00;;;;;;;;5105116;27;9756;-78
2022/11/04 02:24:09;;;;;;;;;2.00;1.00;;;;;;;;5073221;27;9673;-80
2022/11/04 02:27:14;;;;;;;;;1.75;1.75;;;;;;;;5128933;27;9584;-78
2022/11/04 02:30:07;;;;;;;;;1.00;1.00;;;;;;;;5122881;27;9775;-79
2022/11/04 02:32:42;;;;;;;;;2.25;0.00;;;;;;;;5126453;27;9725;-81
2022/11/04 02:35:16;;;;;;;;;2.00;1.00;;;;;;;;5091873;27;9641;-80
2022/11/04 02:37:51;;;;;;;;;3.00;1.25;;;;;;;;5129401;27;9574;-80
2022/11/04 02:40:23;;;;;;;;;1.25;1.25;;;;;;;;5123040;27;9671;-80
2022/11/04 02:42:55;;;;;;;;;1.50;1.50;;;;;;;;5127636;27;9702;-80
2022/11/04 02:45:30;;;;;;;;;3.00;1.00;;;;;;;;5128253;27;9581;-80
2022/11/04 02:48:03;;;;;;;;;1.00;1.00;;;;;;;;5126108;27;9672;-80
2022/11/04 02:50:36;;;;;;;;;0.00;0.00;;;;;;;;5124130;27;9696;-80
2022/11/04 02:53:07;;;;;;;;;1.00;1.00;;;;;;;;5105930;27;9652;-80
2022/11/04 02:55:39;;;;;;;;;1.00;1.00;;;;;;;;5123827;27;9535;-79
2022/11/04 02:58:13;;;;;;;;;1.00;1.00;;;;;;;;5127940;27;9599;-81
2022/11/04 03:00:43;;;;;;;;;3.00;1.00;;;;;;;;5125935;27;9573;-83
2022/11/04 03:03:15;;;;;;;;;1.00;1.00;;;;;;;;5123817;27;10396;-80
2022/11/04 03:05:49;;;;;;;;;0.00;0.00;;;;;;;;5124192;27;9728;-79
2022/11/04 03:08:23;;;;;;;;;0.00;0.00;;;;;;;;5123979;27;9765;-80
2022/11/04 03:10:54;;;;;;;;;0.00;0.00;;;;;;;;5124084;27;9585;-80
2022/11/04 03:13:25;;;;;;;;;1.00;1.00;;;;;;;;5121079;27;10415;-79
2022/11/04 03:15:57;;;;;;;;;7.00;1.50;;;;;;;;5103635;27;9735;-79
2022/11/04 03:18:33;;;;;;;;;0.25;0.25;;;;;;;;5123535;27;9675;-80
2022/11/04 03:21:03;;;;;;;;;4.75;3.50;;;;;;;;5121280;27;9787;-80
2022/11/04 03:23:31;;;;;;;;;1.00;1.00;;;;;;;;5124494;27;9598;-79
2022/11/04 03:26:07;;;;;;;;;1.50;1.50;;;;;;;;5106711;27;9623;-81
2022/11/04 03:28:40;;;;;;;;;3.50;1.00;;;;;;;;5104564;27;9665;-80
2022/11/04 03:31:14;;;;;;;;;1.00;1.00;;;;;;;;5121529;27;9791;-79
2022/11/04 03:33:46;;;;;;;;;0.75;0.75;;;;;;;;5124107;27;9738;-80
2022/11/04 03:36:13;;;;;;;;;2.00;1.00;;;;;;;;5125561;27;9616;-80
2022/11/04 03:38:41;;;;;;;;;1.75;1.00;;;;;;;;5124188;27;9605;-79
2022/11/04 03:41:14;;;;;;;;;1.75;1.50;;;;;;;;5106484;27;9752;-80
2022/11/04 03:43:43;;;;;;;;;3.00;1.00;;;;;;;;5123930;27;9689;-80
2022/11/04 03:46:12;;;;;;;;;0.00;0.00;;;;;;;;5132109;27;9592;-81
2022/11/04 03:48:40;;;;;;;;;1.00;1.00;;;;;;;;5122714;27;9590;-80
2022/11/04 03:51:10;;;;;;;;;0.00;0.00;;;;;;;;5126445;27;10220;-80
2022/11/04 03:53:37;;;;;;;;;0.75;0.75;;;;;;;;5125686;27;9786;-80
2022/11/04 03:56:23;;;;;;;;;1.25;0.00;;;;;;;;5123737;27;9770;-80
2022/11/04 03:59:03;;;;;;;;;3.75;0.00;;;;;;;;5130049;27;9544;-80
2022/11/04 04:01:38;;;;;;;;;1.00;1.00;;;;;;;;5121406;27;10403;-80
2022/11/04 04:04:12;;;;;;;;;2.00;1.00;;;;;;;;5106570;27;9569;-80
2022/11/04 04:06:40;;;;;;;;;1.25;0.00;;;;;;;;5131240;27;9807;-79
2022/11/04 04:09:13;;;;;;;;;1.25;0.25;;;;;;;;5124814;27;9697;-80
2022/11/04 04:11:46;;;;;;;;;0.50;0.50;;;;;;;;5134666;27;9538;-80
2022/11/04 04:14:38;;;;;;;;;1.00;1.00;;;;;;;;5122384;27;9528;-80
2022/11/04 04:17:09;;;;;;;;;1.75;0.25;;;;;;;;5125450;27;9581;-80
2022/11/04 04:19:37;;;;;;;;;0.50;0.50;;;;;;;;5123975;27;9651;-80
2022/11/04 04:22:09;;;;;;;;;1.00;1.00;;;;;;;;5126288;27;9460;-80
2022/11/04 04:27:33;;;;;;;;;1.00;0.00;;;;;;;;5123236;27;9434;-80
2022/11/04 04:30:02;;;;;;;;;1.75;1.25;;;;;;;;5126489;27;9537;-80
2022/11/04 04:32:35;;;;;;;;;0.00;0.00;;;;;;;;5106810;27;9596;-80
2022/11/04 04:37:49;;;;;;;;;0.00;0.00;;;;;;;;5122220;27;9413;-80
2022/11/04 04:45:58;;;;;;;;;2.00;0.00;;;;;;;;5112888;27;10209;-80
2022/11/04 04:48:27;;;;;;;;;2.00;0.50;;;;;;;;5124066;27;9394;-80
2022/11/04 04:51:00;;;;;;;;;1.00;1.00;;;;;;;;5104456;27;9377;-79
2022/11/04 04:53:29;;;;;;;;;2.00;0.00;;;;;;;;5121943;27;9547;-79
2022/11/04 04:55:56;;;;;;;;;2.00;1.75;;;;;;;;5128707;27;9359;-79
2022/11/04 04:58:24;;;;;;;;;1.00;1.00;;;;;;;;5113833;27;9649;-79
2022/11/04 05:00:53;;;;;;;;;1.75;0.00;;;;;;;;5130721;27;9655;-79
2022/11/04 05:03:20;;;;;;;;;1.67;0.67;;;;;;;;5109305;27;9511;-79
2022/11/04 05:05:49;;;;;;;;;0.00;0.00;;;;;;;;5124292;27;9521;-80
2022/11/04 05:08:17;;;;;;;;;0.00;0.00;;;;;;;;5108073;27;9546;-79
2022/11/04 05:10:44;;;;;;;;;0.75;0.75;;;;;;;;5132327;27;9354;-80
2022/11/04 05:13:28;;;;;;;;;0.50;0.50;;;;;;;;5128493;27;10215;-81
2022/11/04 05:15:57;;;;;;;;;1.50;1.50;;;;;;;;5111049;27;9443;-80
2022/11/04 05:18:24;;;;;;;;;1.00;1.00;;;;;;;;5129948;27;9542;-79
2022/11/04 05:20:54;;;;;;;;;0.50;0.50;;;;;;;;5105358;27;9524;-80
2022/11/04 05:23:22;;;;;;;;;1.00;1.00;;;;;;;;5107503;27;9511;-80
2022/11/04 05:25:49;;;;;;;;;2.50;1.00;;;;;;;;5110133;27;10301;-79
2022/11/04 05:28:17;;;;;;;;;2.00;0.25;;;;;;;;5133321;27;9538;-81
2022/11/04 05:30:45;;;;;;;;;0.00;0.00;;;;;;;;5106580;27;9517;-81
2022/11/04 05:33:12;;;;;;;;;1.00;1.00;;;;;;;;5131503;27;10315;-81
2022/11/04 05:35:40;;;;;;;;;0.50;0.00;;;;;;;;5110497;27;9418;-80
2022/11/04 05:38:09;;;;;;;;;3.75;2.00;;;;;;;;5130805;27;9521;-81
2022/11/04 05:40:39;;;;;;;;;3.00;2.25;;;;;;;;5131783;27;9461;-81
2022/11/04 05:43:08;;;;;;;;;2.00;2.00;;;;;;;;5105481;27;9535;-81
2022/11/04 05:45:35;;;;;;;;;1.00;1.00;;;;;;;;5109483;27;9593;-81
2022/11/04 05:48:04;;;;;;;;;1.00;1.00;;;;;;;;5092883;27;9638;-81
2022/11/04 05:50:33;;;;;;;;;1.00;1.00;;;;;;;;5129684;27;9628;-79
2022/11/04 05:53:01;;;;;;;;;1.00;1.00;;;;;;;;5130346;27;9379;-80
2022/11/04 05:55:30;;;;;;;;;1.25;1.25;;;;;;;;5132876;27;9370;-79
2022/11/04 05:57:59;;;;;;;;;1.00;1.00;;;;;;;;5142401;27;9454;-80
2022/11/04 06:00:27;;;;;;;;;0.67;0.67;;;;;;;;5105848;27;9376;-79
2022/11/04 06:02:57;;;;;;;;;3.33;1.00;;;;;;;;5128459;27;9517;-80
2022/11/04 06:05:25;;;;;;;;;1.00;1.00;;;;;;;;5127780;27;10118;-80
2022/11/04 06:07:53;;;;;;;;;0.67;0.67;;;;;;;;5126479;27;9297;-80
2022/11/04 06:10:21;;;;;;;;;3.67;1.00;;;;;;;;5105119;27;9499;-80
2022/11/04 06:12:50;;;;;;;;;1.00;1.00;;;;;;;;5125150;27;9332;-79
2022/11/04 06:15:18;;;;;;;;;2.33;1.00;;;;;;;;5122668;27;9359;-80
2022/11/04 06:17:45;;;;;;;;;2.00;2.00;;;;;;;;5108215;27;9360;-79
2022/11/04 06:20:13;;;;;;;;;0.67;0.00;;;;;;;;5104393;27;9482;-78
2022/11/04 06:22:40;;;;;;;;;2.00;1.00;;;;;;;;5127857;27;9441;-79
2022/11/04 06:25:09;;;;;;;;;1.25;1.25;;;;;;;;5107400;27;9380;-80
2022/11/04 06:27:37;;;;;;;;;1.00;1.00;;;;;;;;5110144;27;9385;-79
2022/11/04 06:30:10;;;;;;;;;0.50;0.00;;;;;;;;5106757;27;9466;-80
2022/11/04 06:32:37;;;;;;;;;2.25;1.75;;;;;;;;5106273;27;9550;-78
2022/11/04 06:35:07;;;;;;;;;0.25;0.25;;;;;;;;5128812;27;9455;-80
2022/11/04 06:37:36;;;;;;;;;2.00;0.50;;;;;;;;5123779;27;9599;-79
2022/11/04 06:40:04;;;;;;;;;2.00;0.00;;;;;;;;5127218;27;9498;-80
2022/11/04 06:42:32;;;;;;;;;0.50;0.00;;;;;;;;5124913;27;9472;-80
2022/11/04 06:44:59;;;;;;;;;3.75;1.00;;;;;;;;5126663;27;9519;-79
2022/11/04 06:47:30;;;;;;;;;1.00;1.00;;;;;;;;5125892;27;9358;-79
2022/11/04 06:49:57;;;;;;;;;1.00;1.00;;;;;;;;5107293;27;9459;-79
2022/11/04 06:52:25;;;;;;;;;0.00;0.00;;;;;;;;5089968;27;9529;-79
2022/11/04 06:54:53;;;;;;;;;0.00;0.00;;;;;;;;5126139;27;10749;-80
2022/11/04 06:57:20;;;;;;;;;3.50;1.00;;;;;;;;5128889;27;9630;-81
2022/11/04 06:59:48;;;;;;;;;0.50;0.00;;;;;;;;5107098;27;10427;-81
2022/11/04 07:02:18;;;;;;;;;0.00;0.00;;;;;;;;5110981;27;9701;-78
2022/11/04 07:04:47;;;;;;;;;1.25;0.00;;;;;;;;5101767;27;9535;-80
2022/11/04 07:07:15;;;;;;;;;1.00;1.00;;;;;;;;5125214;27;9346;-79
2022/11/04 07:09:44;;;;;;;;;1.00;1.00;;;;;;;;5128257;27;9438;-80
2022/11/04 07:12:12;;;;;;;;;0.00;0.00;;;;;;;;5122585;27;9722;-79
2022/11/04 07:14:39;;;;;;;;;1.00;1.00;;;;;;;;5125748;27;9392;-80
2022/11/04 07:17:07;;;;;;;;;0.00;0.00;;;;;;;;5119478;27;9433;-79
2022/11/04 07:19:34;;;;;;;;;2.00;0.67;;;;;;;;5106519;27;9382;-80
2022/11/04 07:22:04;;;;;;;;;0.67;0.00;;;;;;;;5106283;27;9316;-79
2022/11/04 07:24:32;;;;;;;;;0.00;0.00;;;;;;;;5125615;27;9549;-74
2022/11/04 07:27:00;;;;;;;;;0.67;0.00;;;;;;;;5121515;27;9254;-74
2022/11/04 07:29:27;;;;;;;;;0.00;0.00;;;;;;;;5109262;27;9286;-76
2022/11/04 07:31:55;;;;;;;;;0.33;0.33;;;;;;;;5125093;27;9330;-74
2022/11/04 07:34:22;;;;;;;;;1.00;1.00;;;;;;;;5122939;27;9300;-77
2022/11/04 07:36:50;;;;;;;;;2.00;0.00;;;;;;;;5118454;27;9393;-76
2022/11/04 07:39:19;;;;;;;;;1.00;1.00;;;;;;;;5120682;27;9399;-77
2022/11/04 07:41:50;;;;;;;;;0.00;0.00;;;;;;;;5119722;27;9226;-77
2022/11/04 07:44:18;;;;;;;;;1.00;1.00;;;;;;;;5121733;27;9508;-75
2022/11/04 07:46:46;;;;;;;;;1.00;1.00;;;;;;;;5118971;27;9204;-74
2022/11/04 07:49:13;;;;;;;;;2.00;2.00;;;;;;;;5121585;27;9459;-72
2022/11/04 07:51:41;;;;;;;;;5.00;3.00;;;;;;;;5120316;27;9519;-73
2022/11/04 07:54:09;;;;;;;;;4.75;4.75;;;;;;;;5125408;27;9611;-73
2022/11/04 07:56:38;;;;;;;;;3.50;3.50;;;;;;;;5121538;27;9678;-76
2022/11/04 07:59:06;;;;;;;;;4.00;4.00;;;;;;;;5099904;27;9558;-78
2022/11/04 08:01:34;;;;;;;;;2.75;2.75;;;;;;;;5118337;27;9609;-76
2022/11/04 08:04:03;;;;;;;;;2.33;2.33;;;;;;;;5118307;27;9482;-79
2022/11/04 08:06:31;;;;;;;;;6.50;6.50;;;;;;;;5101643;27;9329;-75
2022/11/04 08:08:59;;;;;;;;;6.00;4.50;;;;;;;;5104602;27;9623;-74
2022/11/04 08:11:27;;;;;;;;;6.00;4.50;;;;;;;;5097626;27;9396;-73
2022/11/04 08:13:56;;;;;;;;;5.00;3.75;;;;;;;;5124696;27;9369;-74
2022/11/04 08:16:25;;;;;;;;;3.00;3.00;;;;;;;;5102777;27;9373;-73
2022/11/04 08:18:53;;;;;;;;;3.00;3.00;;;;;;;;5125501;27;9560;-73
2022/11/04 08:21:21;;;;;;;;;6.67;3.33;;;;;;;;5121151;27;9307;-72
2022/11/04 08:23:50;;;;;;;;;2.67;1.00;;;;;;;;5124323;27;9290;-73
2022/11/04 08:26:19;;;;;;;;;2.00;2.00;;;;;;;;5087157;27;9247;-73
2022/11/04 08:28:49;;;;;;;;;6.00;1.00;;;;;;;;5117894;27;9252;-72
2022/11/04 08:31:20;;;;;;;;;2.33;2.33;;;;;;;;5104871;27;9057;-72
2022/11/04 08:33:48;;;;;;;;;2.00;2.00;;;;;;;;5126673;27;9074;-73
2022/11/04 08:36:17;;;;;;;;;0.00;0.00;;;;;;;;5099919;27;9296;-73
2022/11/04 08:38:45;;;;;;;;;0.00;0.00;;;;;;;;5119577;27;9087;-75
2022/11/04 08:41:18;;;;;;;;;0.00;0.00;;;;;;;;5125506;27;8974;-74
2022/11/04 08:43:46;;;;;;;;;0.00;0.00;;;;;;;;5123771;27;9232;-73
2022/11/04 08:46:16;;;;;;;;;1.00;1.00;;;;;;;;5127865;27;8991;-70
2022/11/04 08:48:45;;;;;;;;;1.67;0.00;;;;;;;;5127055;27;9046;-72
2022/11/04 08:51:16;;;;;;;;;3.67;1.00;;;;;;;;5121287;27;9235;-81
2022/11/04 08:53:43;;;;;;;;;0.00;0.00;;;;;;;;5123730;27;9162;-73
2022/11/04 08:56:12;;;;;;;;;2.00;1.00;;;;;;;;5104417;27;9255;-71
2022/11/04 08:58:43;;;;;;;;;1.67;1.67;;;;;;;;5125126;27;9068;-72
2022/11/04 09:01:11;;;;;;;;;2.00;1.00;;;;;;;;5125811;27;9119;-72
2022/11/04 09:03:39;;;;;;;;;1.33;1.33;;;;;;;;5122847;27;9058;-73
2022/11/04 09:06:10;;;;;;;;;0.00;0.00;;;;;;;;5124930;27;9854;-72
2022/11/04 09:08:38;;;;;;;;;0.00;0.00;;;;;;;;5124768;27;9102;-72
2022/11/04 09:11:08;;;;;;;;;1.67;0.00;;;;;;;;5107766;27;9414;-72
2022/11/04 09:13:38;;;;;;;;;0.67;0.67;;;;;;;;5107309;27;9001;-73
2022/11/04 09:16:06;;;;;;;;;2.00;1.00;;;;;;;;5125620;27;9087;-72
2022/11/04 09:18:34;;;;;;;;;2.67;1.67;;;;;;;;5107065;27;9004;-73
2022/11/04 09:21:02;;;;;;;;;1.33;1.00;;;;;;;;5107816;27;9176;-73
2022/11/04 09:23:31;;;;;;;;;2.00;2.00;;;;;;;;5125224;27;9170;-73
2022/11/04 09:26:03;;;;;;;;;1.67;1.00;;;;;;;;5127790;27;9329;-72
2022/11/04 09:28:30;;;;;;;;;0.00;0.00;;;;;;;;5125534;27;9137;-73
2022/11/04 09:30:59;;;;;;;;;2.33;1.00;;;;;;;;5107286;27;9350;-72
2022/11/04 09:33:27;;;;;;;;;0.00;0.00;;;;;;;;5125496;27;9283;-74
2022/11/04 09:35:58;;;;;;;;;2.00;0.75;;;;;;;;5131256;27;9421;-73
2022/11/04 09:38:26;;;;;;;;;0.50;0.50;;;;;;;;5125290;27;9468;-74
2022/11/04 09:40:55;;;;;;;;;1.00;1.00;;;;;;;;5124663;27;9365;-75
2022/11/04 09:43:36;;;;;;;;;1.50;1.00;;;;;;;;5107665;27;9589;-75
2022/11/04 09:46:04;;;;;;;;;1.00;1.00;;;;;;;;5124259;27;9500;-73
2022/11/04 09:48:35;;;;;;;;;0.00;0.00;;;;;;;;5104690;27;9325;-73
2022/11/04 09:51:05;;;;;;;;;1.00;1.00;;;;;;;;5126123;27;9450;-74
2022/11/04 09:53:39;;;;;;;;;0.00;0.00;;;;;;;;5122700;27;9464;-74
2022/11/04 09:56:14;;;;;;;;;0.67;0.67;;;;;;;;5105933;27;9362;-76
2022/11/04 09:58:42;;;;;;;;;0.00;0.00;;;;;;;;5128243;27;9366;-75
2022/11/04 10:01:20;;;;;;;;;2.00;0.25;;;;;;;;5120778;27;9434;-75
2022/11/04 10:04:00;;;;;;;;;2.00;0.50;;;;;;;;5123536;27;10301;-76
2022/11/04 10:06:36;;;;;;;;;0.75;0.25;;;;;;;;5125234;27;9469;-78
2022/11/04 10:09:17;;;;;;;;;0.00;0.00;;;;;;;;5124042;27;9432;-81
2022/11/04 10:11:56;;;;;;;;;0.00;0.00;;;;;;;;5106693;27;9473;-79
2022/11/04 10:14:40;;;;;;;;;0.75;0.00;;;;;;;;5090452;27;9503;-77
2022/11/04 10:17:30;;;;;;;;;0.00;0.00;;;;;;;;5120690;27;9526;-76
2022/11/04 10:20:11;;;;;;;;;0.00;0.00;;;;;;;;5122768;27;9579;-74
2022/11/04 10:22:54;;;;;;;;;3.00;1.00;;;;;;;;5105552;27;9455;-79
2022/11/04 10:25:23;;;;;;;;;0.00;0.00;;;;;;;;5105101;27;9562;-77
2022/11/04 10:27:53;;;;;;;;;0.00;0.00;;;;;;;;5123759;27;9557;-78
2022/11/04 10:30:23;;;;;;;;;0.00;0.00;;;;;;;;5126890;27;9567;-78
2022/11/04 10:32:58;;;;;;;;;1.25;0.00;;;;;;;;5105054;27;9440;-76
2022/11/04 10:35:32;;;;;;;;;0.00;0.00;;;;;;;;5122950;27;9509;-77
2022/11/04 10:38:13;;;;;;;;;0.75;0.75;;;;;;;;5122833;27;10369;-77
2022/11/04 10:40:40;;;;;;;;;2.75;1.25;;;;;;;;5104345;27;9671;-77
2022/11/04 10:43:16;;;;;;;;;1.00;1.00;;;;;;;;5122879;27;9787;-77
2022/11/04 10:45:50;;;;;;;;;2.00;1.00;;;;;;;;5122157;27;9650;-76
2022/11/04 10:48:26;;;;;;;;;17.75;15.50;;;;;;;;5122839;27;10255;-77
2022/11/04 10:50:55;;;;;;;;;1.67;1.00;;;;;;;;5124329;27;10242;-77
2022/11/04 10:53:25;;;;;;;;;0.00;0.00;;;;;;;;5127283;27;9477;-77
2022/11/04 10:56:00;;;;;;;;;2.33;1.00;;;;;;;;5124692;27;9943;-76
2022/11/04 10:58:32;;;;;;;;;2.33;2.33;;;;;;;;5123925;27;9254;-75
2022/11/04 11:01:00;;;;;;;;;3.33;0.00;;;;;;;;5119838;27;9231;-76
2022/11/04 11:03:32;;;;;;;;;2.00;1.00;;;;;;;;5122129;27;9170;-76
2022/11/04 11:06:20;;;;;;;;;2.33;2.33;;;;;;;;5120884;27;9088;-76
2022/11/04 11:08:50;;;;;;;;;0.00;0.00;;;;;;;;5118600;27;8926;-76
2022/11/04 11:11:19;;;;;;;;;1.00;1.00;;;;;;;;5123628;27;8980;-77
2022/11/04 11:13:48;;;;;;;;;1.75;1.75;;;;;;;;5119732;27;8810;-75
2022/11/04 11:16:20;;;;;;;;;2.00;1.00;;;;;;;;5104655;27;8823;-78
2022/11/04 11:19:13;;;;;;;;;1.00;0.75;;;;;;;;5117157;27;8842;-77
2022/11/04 11:21:48;;;;;;;;;1.00;1.00;;;;;;;;5124952;27;8961;-78
2022/11/04 11:24:20;;;;;;;;;0.00;0.00;;;;;;;;5098261;27;8862;-75
2022/11/04 11:26:51;;;;;;;;;3.25;1.75;;;;;;;;5115393;27;9698;-76
2022/11/04 11:29:24;;;;;;;;;1.75;1.75;;;;;;;;5101751;27;8983;-78
2022/11/04 11:31:53;;;;;;;;;1.50;1.50;;;;;;;;5119980;27;8844;-79
2022/11/04 11:34:26;;;;;;;;;1.00;1.00;;;;;;;;5115501;27;8818;-78
2022/11/04 11:36:56;;;;;;;;;2.00;2.00;;;;;;;;5121143;27;8859;-77
2022/11/04 11:39:26;;;;;;;;;3.50;2.00;;;;;;;;5115886;27;8853;-79
2022/11/04 11:41:58;;;;;;;;;1.75;0.75;;;;;;;;5101381;27;8858;-78
2022/11/04 11:44:31;;;;;;;;;1.00;1.00;;;;;;;;5102740;27;8878;-78
2022/11/04 11:47:01;;;;;;;;;2.50;1.25;;;;;;;;5100495;27;8846;-75
2022/11/04 11:49:32;;;;;;;;;0.25;0.25;;;;;;;;5121922;27;8843;-80
2022/11/04 11:52:25;;;;;;;;;1.00;1.00;;;;;;;;5099864;27;9651;-77
2022/11/04 11:54:57;;;;;;;;;5.75;5.75;;;;;;;;5121188;27;8973;-77
2022/11/04 11:57:34;;;;;;;;;1.00;1.00;;;;;;;;5102249;27;8892;-75
2022/11/04 12:00:08;;;;;;;;;3.00;2.00;;;;;;;;5122779;27;8850;-75
2022/11/04 12:02:46;;;;;;;;;2.00;2.00;;;;;;;;5100336;27;8854;-79
2022/11/04 12:05:19;;;;;;;;;4.00;2.00;;;;;;;;5125363;27;8863;-75
2022/11/04 12:07:53;;;;;;;;;2.00;2.00;;;;;;;;5126092;27;8845;-77
2022/11/04 12:10:27;;;;;;;;;2.00;1.50;;;;;;;;5124007;27;8858;-76
2022/11/04 12:13:03;;;;;;;;;2.25;1.50;;;;;;;;5102900;27;8894;-75
2022/11/04 12:15:42;;;;;;;;;3.25;2.50;;;;;;;;5126341;27;8953;-77
2022/11/04 12:18:32;;;;;;;;;2.00;2.00;;;;;;;;5125669;27;8861;-77
2022/11/04 12:21:04;;;;;;;;;1.75;1.75;;;;;;;;5107926;27;8883;-76
2022/11/04 12:23:37;;;;;;;;;0.50;0.50;;;;;;;;5105699;27;9590;-75
2022/11/04 12:26:16;;;;;;;;;1.75;1.75;;;;;;;;5120478;27;8859;-71
2022/11/04 12:28:54;;;;;;;;;0.00;0.00;;;;;;;;5123296;27;9596;-72
2022/11/04 12:31:31;;;;;;;;;1.00;1.00;;;;;;;;5118485;27;8824;-76
2022/11/04 12:34:08;;;;;;;;;0.00;0.00;;;;;;;;5122091;27;8966;-73
2022/11/04 12:36:54;;;;;;;;;1.25;1.25;;;;;;;;5116527;27;8944;-73
2022/11/04 12:39:31;;;;;;;;;2.00;0.00;;;;;;;;5121358;27;8828;-72
2022/11/04 12:42:08;;;;;;;;;1.00;1.00;;;;;;;;5121362;27;8839;-73
2022/11/04 12:44:41;;;;;;;;;1.00;1.00;;;;;;;;5100733;27;8870;-73
2022/11/04 12:47:27;;;;;;;;;2.00;2.00;;;;;;;;5121255;27;8860;-73
2022/11/04 12:50:23;;;;;;;;;1.25;1.00;;;;;;;;5119984;27;8888;-77
2022/11/04 12:53:20;;;;;;;;;0.00;0.00;;;;;;;;5105327;27;8882;-77
2022/11/04 12:55:56;;;;;;;;;1.25;1.25;;;;;;;;5118904;27;8912;-75
2022/11/04 12:58:37;;;;;;;;;1.00;1.00;;;;;;;;5122855;27;9654;-72
2022/11/04 13:01:08;;;;;;;;;1.00;1.00;;;;;;;;5123437;27;8844;-74
2022/11/04 13:03:45;;;;;;;;;4.75;3.00;;;;;;;;5124965;27;8812;-73
2022/11/04 13:06:16;;;;;;;;;3.25;2.75;;;;;;;;5105834;27;8978;-73
2022/11/04 13:08:49;;;;;;;;;1.00;1.00;;;;;;;;5128179;27;8840;-73
2022/11/04 13:11:23;;;;;;;;;0.75;0.75;;;;;;;;5126193;27;8840;-74
2022/11/04 13:13:58;;;;;;;;;2.00;0.50;;;;;;;;5126042;27;8829;-73
2022/11/04 13:16:26;;;;;;;;;0.00;0.00;;;;;;;;5122336;27;8846;-73
2022/11/04 13:18:55;;;;;;;;;0.75;0.75;;;;;;;;5106397;27;8959;-73
2022/11/04 13:21:28;;;;;;;;;6.75;5.00;;;;;;;;5108658;27;8888;-73
2022/11/04 13:23:59;;;;;;;;;0.00;0.00;;;;;;;;5106061;27;8912;-72
2022/11/04 13:26:27;;;;;;;;;2.25;2.00;;;;;;;;5129043;27;8820;-73
2022/11/04 13:29:00;;;;;;;;;0.25;0.25;;;;;;;;5125906;27;8940;-73
2022/11/04 13:31:38;;;;;;;;;1.75;1.00;;;;;;;;5128028;27;8815;-73
2022/11/04 13:34:14;;;;;;;;;2.00;1.00;;;;;;;;5124256;27;8824;-74
2022/11/04 13:36:47;;;;;;;;;0.00;0.00;;;;;;;;5125470;27;8874;-74
2022/11/04 13:39:20;;;;;;;;;0.00;0.00;;;;;;;;5126853;27;8870;-73
2022/11/04 13:42:17;;;;;;;;;0.50;0.00;;;;;;;;5107931;27;8819;-73
2022/11/04 13:44:47;;;;;;;;;0.00;0.00;;;;;;;;5125933;27;8860;-73
2022/11/04 13:47:18;;;;;;;;;2.00;2.00;;;;;;;;5124756;27;9597;-74
2022/11/04 13:49:52;;;;;;;;;0.25;0.25;;;;;;;;5124630;27;8851;-74
2022/11/04 13:52:20;;;;;;;;;0.25;0.25;;;;;;;;5127558;27;8816;-74
2022/11/04 13:54:56;;;;;;;;;1.50;0.00;;;;;;;;5106681;27;8843;-73
2022/11/04 13:57:25;;;;;;;;;0.75;0.50;;;;;;;;5125060;27;8827;-74
2022/11/04 14:00:21;;;;;;;;;1.00;1.00;;;;;;;;5125745;27;8848;-74
2022/11/04 14:02:49;;;;;;;;;0.25;0.25;;;;;;;;5124252;27;9807;-75
2022/11/04 14:06:04;;;;;;;;;1.67;1.67;;;;;;;;5129812;27;8923;-74
2022/11/04 14:08:33;;;;;;;;;0.25;0.25;;;;;;;;5038365;28;8941;-74
2022/11/04 14:11:03;;;;;;;;;0.50;0.50;;;;;;;;5041161;28;8860;-75
2022/11/04 14:14:03;;;;;;;;;1.00;1.00;;;;;;;;5087808;27;8836;-74
2022/11/04 14:16:42;;;;;;;;;1.00;1.00;;;;;;;;5124154;27;8927;-75
2022/11/04 14:19:49;;;;;;;;;2.25;1.00;;;;;;;;5123039;27;8938;-74
2022/11/04 14:22:18;;;;;;;;;1.33;1.33;;;;;;;;5122511;27;8843;-74
2022/11/04 14:24:55;;;;;;;;;1.67;1.67;;;;;;;;5107202;27;9072;-74
2022/11/04 14:27:32;;;;;;;;;6.00;3.00;;;;;;;;5123038;27;9080;-74
2022/11/04 14:30:00;;;;;;;;;4.00;4.00;;;;;;;;5124039;27;9085;-75
2022/11/04 14:32:39;;;;;;;;;5.00;5.00;;;;;;;;5106981;27;9032;-75
2022/11/04 14:35:15;;;;;;;;;4.33;4.33;;;;;;;;5120862;27;9337;-75
2022/11/04 14:37:45;;;;;;;;;7.33;6.00;;;;;;;;5106778;27;9889;-74
2022/11/04 14:40:25;;;;;;;;;5.00;5.00;;;;;;;;5126149;27;9158;-75
2022/11/04 14:42:55;;;;;;;;;5.67;5.67;;;;;;;;5122052;27;8977;-79
2022/11/04 14:45:24;;;;;;;;;6.00;6.00;;;;;;;;5128956;27;9108;-77
2022/11/04 14:47:55;;;;;;;;;7.00;7.00;;;;;;;;5122242;27;9101;-78
2022/11/04 14:50:26;;;;;;;;;8.00;8.00;;;;;;;;5125031;27;8983;-73
2022/11/04 14:52:56;;;;;;;;;5.00;5.00;;;;;;;;5122574;27;9164;-74
2022/11/04 14:55:28;;;;;;;;;6.33;6.00;;;;;;;;5129185;27;8958;-73
2022/11/04 14:57:57;;;;;;;;;12.33;12.00;;;;;;;;5125418;27;8999;-73
2022/11/04 15:00:31;;;;;;;;;5.33;5.33;;;;;;;;5106350;27;9746;-73
2022/11/04 15:03:16;;;;;;;;;7.33;7.33;;;;;;;;5122861;27;9003;-77
2022/11/04 15:05:49;;;;;;;;;10.33;8.67;;;;;;;;5104461;27;9111;-77
2022/11/04 15:08:31;;;;;;;;;8.00;8.00;;;;;;;;5123729;27;9182;-76
2022/11/04 15:11:01;;;;;;;;;2.25;2.25;;;;;;;;5122569;27;9056;-76
2022/11/04 15:13:34;;;;;;;;;4.00;4.00;;;;;;;;5124755;27;8836;-77
2022/11/04 15:16:07;;;;;;;;;3.00;3.00;;;;;;;;5125283;27;8919;-75
2022/11/04 15:18:38;;;;;;;;;1.67;1.67;;;;;;;;5105652;27;9072;-78
2022/11/04 15:21:06;;;;;;;;;3.33;3.33;;;;;;;;5102991;27;9080;-76
2022/11/04 15:23:38;;;;;;;;;4.00;4.00;;;;;;;;5122314;27;8950;-75
2022/11/04 15:26:06;;;;;;;;;2.75;2.75;;;;;;;;5118761;27;9851;-75
2022/11/04 15:28:36;;;;;;;;;5.00;4.33;;;;;;;;5126207;27;9602;-74
2022/11/04 15:31:15;;;;;;;;;2.67;2.00;;;;;;;;5103163;27;9151;-74
2022/11/04 15:33:45;;;;;;;;;4.00;4.00;;;;;;;;5138920;27;9225;-73
2022/11/04 15:36:17;;;;;;;;;4.67;2.00;;;;;;;;5126569;27;9282;-73
2022/11/04 15:38:51;;;;;;;;;3.00;3.00;;;;;;;;5127091;27;9213;-73
2022/11/04 15:44:16;;;;;;;;;3.33;3.33;;;;;;;;5121765;27;9916;-75
2022/11/04 15:46:50;;;;;;;;;2.00;2.00;;;;;;;;5128311;27;9189;-75
2022/11/04 15:49:24;;;;;;;;;3.00;3.00;;;;;;;;5124972;27;9217;-75
2022/11/04 15:51:54;;;;;;;;;3.00;3.00;;;;;;;;5121930;27;9152;-74